createdAt,value
2018-08-12T00:01:03.317Z,2.10
2018-08-12T00:03:31.457Z,2.70
2018-08-12T00:05:59.484Z,3.70
2018-08-12T00:08:27.611Z,4.17
2018-08-12T00:10:55.685Z,4.90
2018-08-12T00:13:23.762Z,4.30
2018-08-12T00:15:51.807Z,4.17
2018-08-12T00:18:19.876Z,5.43
2018-08-12T00:20:47.931Z,6.43
2018-08-12T00:23:15.986Z,5.83
2018-08-12T00:25:44.016Z,6.50
2018-08-12T00:28:12.065Z,5.50
2018-08-12T00:30:40.129Z,5.40
2018-08-12T00:33:08.179Z,5.27
2018-08-12T00:35:36.214Z,3.70
2018-08-12T00:38:04.282Z,3.80
2018-08-12T00:40:32.346Z,3.97
2018-08-12T00:43:00.426Z,4.50
2018-08-12T00:45:28.499Z,5.47
2018-08-12T00:47:56.570Z,5.93
2018-08-12T00:50:24.622Z,5.63
2018-08-12T00:52:52.684Z,5.60
2018-08-12T00:55:20.738Z,7.30
2018-08-12T00:57:49.138Z,6.83
2018-08-12T01:00:19.560Z,8.03
2018-08-12T01:02:47.609Z,8.00
2018-08-12T01:05:16.714Z,7.20
2018-08-12T01:07:45.264Z,7.90
2018-08-12T01:10:14.194Z,8.90
2018-08-12T01:12:42.250Z,10.53
2018-08-12T01:15:12.789Z,9.87
2018-08-12T01:20:34.389Z,12.47
2018-08-12T01:23:02.450Z,13.30
2018-08-12T01:25:30.710Z,12.60
2018-08-12T01:27:58.770Z,15.87
2018-08-12T01:30:26.825Z,12.93
2018-08-12T01:32:54.894Z,12.53
2018-08-12T01:35:22.950Z,9.30
2018-08-12T01:37:51.040Z,9.60
2018-08-12T01:40:19.751Z,11.80
2018-08-12T01:42:47.844Z,12.37
2018-08-12T01:45:17.729Z,12.90
2018-08-12T01:47:45.835Z,8.33
2018-08-12T01:50:14.992Z,6.40
2018-08-12T01:52:43.077Z,9.93
2018-08-12T01:55:11.160Z,8.17
2018-08-12T01:57:39.239Z,7.00
2018-08-12T02:00:09.773Z,7.50
2018-08-12T02:02:37.817Z,8.73
2018-08-12T02:05:06.653Z,8.23
2018-08-12T02:07:34.712Z,9.20
2018-08-12T02:10:02.829Z,9.57
2018-08-12T02:12:30.897Z,15.03
2018-08-12T02:14:59.012Z,14.30
2018-08-12T02:17:27.099Z,15.63
2018-08-12T02:19:55.163Z,10.17
2018-08-12T02:22:23.212Z,9.07
2018-08-12T02:24:51.252Z,8.57
2018-08-12T02:27:19.325Z,10.03
2018-08-12T02:29:47.422Z,9.70
2018-08-12T02:32:15.470Z,10.90
2018-08-12T02:34:43.561Z,11.17
2018-08-12T02:37:11.623Z,12.27
2018-08-12T02:39:39.739Z,10.43
2018-08-12T02:42:07.808Z,10.87
2018-08-12T02:44:35.862Z,13.67
2018-08-12T02:47:03.953Z,13.03
2018-08-12T02:49:32.028Z,11.87
2018-08-12T02:52:00.096Z,11.37
2018-08-12T02:54:28.193Z,9.93
2018-08-12T02:56:56.261Z,11.00
2018-08-12T02:59:24.316Z,13.40
2018-08-12T03:01:52.467Z,11.63
2018-08-12T03:04:20.537Z,13.90
2018-08-12T03:06:48.591Z,12.30
2018-08-12T03:09:16.671Z,9.53
2018-08-12T03:11:44.697Z,9.90
2018-08-12T03:14:12.770Z,6.90
2018-08-12T03:16:40.988Z,5.83
2018-08-12T03:19:09.102Z,6.43
2018-08-12T03:21:37.174Z,8.23
2018-08-12T03:24:05.265Z,9.40
2018-08-12T03:26:34.456Z,9.87
2018-08-12T03:29:02.525Z,12.10
2018-08-12T03:31:30.610Z,17.90
2018-08-12T03:33:58.674Z,8.63
2018-08-12T03:36:26.734Z,10.83
2018-08-12T03:38:54.845Z,11.60
2018-08-12T03:41:22.888Z,10.17
2018-08-12T03:43:50.949Z,10.67
2018-08-12T03:46:19.035Z,10.33
2018-08-12T03:48:47.150Z,10.73
2018-08-12T03:51:15.186Z,11.50
2018-08-12T03:53:43.244Z,11.10
2018-08-12T03:56:11.295Z,12.73
2018-08-12T03:58:39.373Z,12.97
2018-08-12T04:01:07.824Z,10.00
2018-08-12T04:03:35.886Z,5.33
2018-08-12T04:06:04.020Z,5.27
2018-08-12T04:08:32.109Z,9.83
2018-08-12T04:11:00.225Z,5.67
2018-08-12T04:13:28.344Z,2.33
2018-08-12T04:15:56.482Z,6.87
2018-08-12T04:18:24.566Z,5.13
2018-08-12T04:20:52.666Z,14.83
2018-08-12T04:23:20.774Z,10.47
2018-08-12T04:25:49.955Z,19.30
2018-08-12T04:28:18.272Z,22.00
2018-08-12T04:30:46.324Z,24.67
2018-08-12T04:33:14.451Z,23.27
2018-08-12T04:35:42.583Z,20.50
2018-08-12T04:38:10.651Z,23.60
2018-08-12T04:40:38.787Z,22.13
2018-08-12T04:43:06.857Z,20.73
2018-08-12T04:45:34.993Z,23.97
2018-08-12T04:48:03.085Z,26.27
2018-08-12T04:50:31.164Z,23.13
2018-08-12T04:52:59.235Z,20.90
2018-08-12T04:55:27.353Z,21.33
2018-08-12T04:57:55.463Z,22.00
2018-08-12T05:00:23.725Z,20.03
2018-08-12T05:02:51.818Z,19.53
2018-08-12T05:05:19.885Z,15.37
2018-08-12T05:07:47.982Z,12.97
2018-08-12T05:10:16.085Z,11.93
2018-08-12T05:12:44.169Z,11.50
2018-08-12T05:15:12.282Z,10.43
2018-08-12T05:17:40.645Z,8.17
2018-08-12T05:20:09.397Z,8.27
2018-08-12T05:22:37.574Z,6.83
2018-08-12T05:25:05.675Z,5.33
2018-08-12T05:27:33.852Z,4.73
2018-08-12T05:30:01.925Z,4.53
2018-08-12T05:32:29.988Z,4.30
2018-08-12T05:34:58.093Z,3.90
2018-08-12T05:37:26.251Z,4.00
2018-08-12T05:39:54.427Z,3.70
2018-08-12T05:42:22.532Z,3.77
2018-08-12T05:44:50.641Z,3.43
2018-08-12T05:47:18.749Z,3.47
2018-08-12T05:49:46.833Z,3.13
2018-08-12T05:52:14.927Z,3.10
2018-08-12T05:54:42.995Z,3.57
2018-08-12T05:57:11.077Z,3.37
2018-08-12T05:59:39.187Z,2.97
2018-08-12T06:02:07.350Z,3.27
2018-08-12T06:04:35.446Z,2.60
2018-08-12T06:07:03.554Z,2.60
2018-08-12T06:09:31.698Z,2.83
2018-08-12T06:11:59.813Z,3.17
2018-08-12T06:14:27.967Z,2.80
2018-08-12T06:16:56.056Z,2.47
2018-08-12T06:19:24.145Z,2.47
2018-08-12T06:21:52.235Z,2.27
2018-08-12T06:24:20.345Z,2.30
2018-08-12T06:26:48.428Z,2.20
2018-08-12T06:29:16.530Z,2.20
2018-08-12T06:31:44.630Z,1.93
2018-08-12T06:34:12.774Z,2.05
2018-08-12T06:36:40.892Z,2.43
2018-08-12T06:39:10.546Z,2.10
2018-08-12T06:41:38.645Z,1.82
2018-08-12T06:44:06.918Z,1.73
2018-08-12T06:46:35.523Z,1.80
2018-08-12T06:49:03.654Z,1.65
2018-08-12T06:51:31.751Z,1.67
2018-08-12T06:54:00.908Z,1.60
2018-08-12T06:56:29.001Z,1.50
2018-08-12T06:58:57.093Z,1.60
2018-08-12T07:01:25.224Z,1.60
2018-08-12T07:03:53.317Z,1.50
2018-08-12T07:06:21.419Z,1.70
2018-08-12T07:08:49.645Z,1.60
2018-08-12T07:11:17.753Z,1.50
2018-08-12T07:13:45.856Z,1.55
2018-08-12T07:16:13.977Z,1.30
2018-08-12T07:18:42.138Z,1.50
2018-08-12T07:21:10.263Z,1.40
2018-08-12T07:23:38.375Z,1.10
2018-08-12T07:26:06.479Z,1.27
2018-08-12T07:28:34.614Z,0.90
2018-08-12T07:31:02.718Z,1.22
2018-08-12T07:33:30.805Z,1.40
2018-08-12T07:35:58.886Z,1.20
2018-08-12T07:38:27.088Z,1.20
2018-08-12T07:40:55.167Z,1.47
2018-08-12T07:43:23.300Z,1.25
2018-08-12T07:45:51.460Z,1.25
2018-08-12T07:48:19.530Z,1.30
2018-08-12T07:50:47.646Z,1.20
2018-08-12T07:53:15.758Z,1.10
2018-08-12T07:55:43.890Z,1.20
2018-08-12T07:58:11.965Z,1.30
2018-08-12T08:00:40.077Z,1.75
2018-08-12T08:03:09.312Z,2.33
2018-08-12T08:05:37.414Z,1.37
2018-08-12T08:08:05.619Z,1.35
2018-08-12T08:13:26.446Z,1.55
2018-08-12T08:15:54.544Z,1.40
2018-08-12T08:18:24.326Z,1.20
2018-08-12T08:20:52.430Z,1.40
2018-08-12T08:23:20.559Z,1.12
2018-08-12T08:25:48.673Z,1.40
2018-08-12T08:28:16.965Z,1.40
2018-08-12T08:30:50.140Z,1.30
2018-08-12T08:33:18.345Z,1.40
2018-08-12T08:35:46.449Z,1.40
2018-08-12T08:38:14.609Z,1.42
2018-08-12T08:40:42.750Z,1.15
2018-08-12T08:43:10.878Z,1.10
2018-08-12T08:45:39.027Z,1.60
2018-08-12T08:48:07.300Z,1.32
2018-08-12T08:50:35.459Z,1.25
2018-08-12T08:53:03.620Z,1.35
2018-08-12T08:55:32.809Z,1.62
2018-08-12T08:58:00.958Z,1.60
2018-08-12T09:00:29.077Z,2.08
2018-08-12T09:02:57.217Z,1.95
2018-08-12T09:05:25.306Z,1.72
2018-08-12T09:07:53.501Z,1.30
2018-08-12T09:10:21.848Z,1.55
2018-08-12T09:12:50.030Z,1.30
2018-08-12T09:15:19.135Z,1.55
2018-08-12T09:17:48.000Z,1.60
2018-08-12T09:20:18.252Z,1.70
2018-08-12T09:22:46.451Z,1.55
2018-08-12T09:25:14.604Z,1.82
2018-08-12T09:27:42.722Z,1.77
2018-08-12T09:30:14.119Z,1.70
2018-08-12T09:32:42.514Z,1.62
2018-08-12T09:35:10.605Z,2.08
2018-08-12T09:37:38.683Z,2.17
2018-08-12T09:40:08.833Z,2.27
2018-08-12T09:42:36.987Z,2.50
2018-08-12T09:45:07.018Z,2.10
2018-08-12T09:47:35.195Z,2.20
2018-08-12T09:50:03.477Z,1.90
2018-08-12T09:52:31.593Z,1.90
2018-08-12T09:54:59.730Z,2.10
2018-08-12T09:57:27.889Z,1.90
2018-08-12T09:59:56.112Z,1.98
2018-08-12T10:02:24.290Z,1.80
2018-08-12T10:04:52.409Z,1.67
2018-08-12T10:07:20.577Z,1.60
2018-08-12T10:09:48.645Z,1.77
2018-08-12T10:12:16.801Z,1.80
2018-08-12T10:14:44.971Z,1.75
2018-08-12T10:17:36.277Z,1.65
2018-08-12T10:20:04.982Z,2.00
2018-08-12T10:22:33.103Z,1.65
2018-08-12T10:25:01.272Z,1.60
2018-08-12T10:27:29.386Z,1.70
2018-08-12T10:29:58.606Z,1.60
2018-08-12T10:32:26.755Z,1.80
2018-08-12T10:34:54.871Z,1.70
2018-08-12T10:37:23.100Z,1.40
2018-08-12T10:39:51.250Z,1.35
2018-08-12T10:42:19.572Z,1.22
2018-08-12T10:44:47.769Z,1.80
2018-08-12T10:47:15.974Z,1.20
2018-08-12T10:49:44.243Z,1.52
2018-08-12T10:52:12.362Z,1.62
2018-08-12T10:54:40.524Z,1.57
2018-08-12T10:57:08.653Z,1.90
2018-08-12T10:59:36.787Z,1.80
2018-08-12T11:02:04.940Z,1.90
2018-08-12T11:04:33.067Z,1.92
2018-08-12T11:07:01.232Z,1.42
2018-08-12T11:09:29.383Z,1.90
2018-08-12T11:11:57.606Z,1.42
2018-08-12T11:14:26.827Z,1.35
2018-08-12T11:16:54.998Z,1.70
2018-08-12T11:19:23.179Z,1.20
2018-08-12T11:21:51.326Z,1.62
2018-08-12T11:24:19.570Z,1.80
2018-08-12T11:26:47.762Z,1.70
2018-08-12T11:29:15.939Z,1.42
2018-08-12T11:31:44.071Z,1.47
2018-08-12T11:34:12.218Z,1.77
2018-08-12T11:36:40.361Z,1.60
2018-08-12T11:39:09.872Z,1.50
2018-08-12T11:41:38.065Z,1.90
2018-08-12T11:44:06.187Z,1.40
2018-08-12T11:46:34.388Z,1.47
2018-08-12T11:49:02.576Z,1.60
2018-08-12T11:51:30.847Z,1.60
2018-08-12T11:53:59.036Z,1.75
2018-08-12T11:56:27.261Z,1.80
2018-08-12T11:58:55.407Z,1.52
2018-08-12T12:01:23.636Z,1.37
2018-08-12T12:03:51.782Z,1.30
2018-08-12T12:06:19.932Z,1.60
2018-08-12T12:08:48.063Z,1.82
2018-08-12T12:11:16.212Z,1.50
2018-08-12T12:13:44.778Z,1.45
2018-08-12T12:16:13.016Z,1.50
2018-08-12T12:18:41.140Z,1.82
2018-08-12T12:24:01.805Z,1.57
2018-08-12T12:26:30.020Z,1.45
2018-08-12T12:28:58.245Z,1.98
2018-08-12T12:31:26.490Z,1.20
2018-08-12T12:33:54.583Z,1.37
2018-08-12T12:36:22.695Z,1.40
2018-08-12T12:38:50.806Z,1.70
2018-08-12T12:41:18.948Z,1.47
2018-08-12T12:43:47.096Z,1.45
2018-08-12T12:46:15.249Z,1.30
2018-08-12T12:48:43.417Z,1.60
2018-08-12T12:51:11.687Z,1.30
2018-08-12T12:53:39.809Z,1.50
2018-08-12T12:56:07.956Z,1.67
2018-08-12T12:58:36.109Z,1.50
2018-08-12T13:01:04.438Z,1.10
2018-08-12T13:03:32.710Z,1.27
2018-08-12T13:06:00.892Z,1.60
2018-08-12T13:08:29.019Z,1.25
2018-08-12T13:10:57.258Z,1.30
2018-08-12T13:13:25.460Z,1.57
2018-08-12T13:15:53.647Z,1.30
2018-08-12T13:18:37.786Z,1.72
2018-08-12T13:21:06.187Z,1.40
2018-08-12T13:23:34.377Z,1.00
2018-08-12T13:26:02.610Z,1.30
2018-08-12T13:28:30.806Z,1.35
2018-08-12T13:30:59.022Z,1.12
2018-08-12T13:33:27.211Z,1.37
2018-08-12T13:35:55.397Z,1.22
2018-08-12T13:38:23.595Z,1.20
2018-08-12T13:40:51.862Z,1.45
2018-08-12T13:43:20.223Z,1.40
2018-08-12T13:45:48.448Z,1.30
2018-08-12T13:48:16.883Z,1.25
2018-08-12T13:50:45.110Z,1.20
2018-08-12T13:53:13.358Z,1.17
2018-08-12T13:55:41.510Z,1.20
2018-08-12T13:58:09.690Z,1.10
2018-08-12T14:00:37.881Z,1.22
2018-08-12T14:03:06.117Z,1.40
2018-08-12T14:05:34.465Z,1.10
2018-08-12T14:08:02.850Z,1.25
2018-08-12T14:10:31.080Z,1.40
2018-08-12T14:12:59.217Z,1.27
2018-08-12T14:15:27.464Z,0.90
2018-08-12T14:17:55.671Z,1.17
2018-08-12T14:20:23.871Z,1.20
2018-08-12T14:22:52.114Z,0.93
2018-08-12T14:25:20.250Z,1.20
2018-08-12T14:27:48.399Z,1.15
2018-08-12T14:30:20.099Z,1.30
2018-08-12T14:32:48.762Z,1.20
2018-08-12T14:35:16.919Z,1.42
2018-08-12T14:37:45.260Z,1.12
2018-08-12T14:40:13.888Z,0.90
2018-08-12T14:42:42.317Z,1.10
2018-08-12T14:45:12.298Z,1.00
2018-08-12T14:47:41.028Z,1.10
2018-08-12T14:50:13.757Z,1.02
2018-08-12T14:52:42.113Z,1.15
2018-08-12T14:55:11.177Z,1.00
2018-08-12T14:57:39.778Z,1.02
2018-08-12T15:00:10.630Z,1.10
2018-08-12T15:05:31.771Z,1.00
2018-08-12T15:07:59.916Z,1.15
2018-08-12T15:10:28.440Z,0.90
2018-08-12T15:12:56.577Z,1.10
2018-08-12T15:15:24.797Z,1.10
2018-08-12T15:17:52.876Z,1.00
2018-08-12T15:20:21.009Z,1.02
2018-08-12T15:22:49.182Z,1.00
2018-08-12T15:25:18.829Z,1.07
2018-08-12T15:27:47.367Z,1.30
2018-08-12T15:30:15.469Z,1.27
2018-08-12T15:32:43.550Z,1.02
2018-08-12T15:35:11.680Z,1.17
2018-08-12T15:37:39.912Z,1.10
2018-08-12T15:40:10.805Z,1.32
2018-08-12T15:42:39.095Z,1.27
2018-08-12T15:45:10.178Z,1.10
2018-08-12T15:47:38.393Z,1.10
2018-08-12T15:50:07.234Z,0.90
2018-08-12T15:52:35.377Z,1.10
2018-08-12T15:55:03.558Z,1.00
2018-08-12T15:57:31.903Z,1.00
2018-08-12T16:00:00.122Z,0.90
2018-08-12T16:02:28.273Z,1.00
2018-08-12T16:04:56.470Z,1.15
2018-08-12T16:07:24.643Z,1.07
2018-08-12T16:09:52.760Z,1.00
2018-08-12T16:12:20.993Z,1.07
2018-08-12T16:14:49.143Z,1.10
2018-08-12T16:17:17.335Z,0.90
2018-08-12T16:19:45.424Z,0.80
2018-08-12T16:22:13.644Z,1.02
2018-08-12T16:24:41.805Z,1.00
2018-08-12T16:27:10.009Z,1.27
2018-08-12T16:29:38.204Z,0.93
2018-08-12T16:32:06.362Z,1.30
2018-08-12T16:34:34.530Z,1.20
2018-08-12T16:37:02.687Z,1.30
2018-08-12T16:39:30.873Z,1.10
2018-08-12T16:41:59.101Z,1.37
2018-08-12T16:44:27.384Z,0.98
2018-08-12T16:46:55.704Z,1.20
2018-08-12T16:49:24.009Z,1.00
2018-08-12T16:51:52.233Z,1.15
2018-08-12T16:54:20.374Z,1.02
2018-08-12T16:56:48.664Z,1.10
2018-08-12T16:59:16.732Z,1.00
2018-08-12T17:01:44.882Z,1.05
2018-08-12T17:04:13.075Z,1.10
2018-08-12T17:06:41.256Z,1.00
2018-08-12T17:09:11.127Z,0.90
2018-08-12T17:11:39.395Z,1.10
2018-08-12T17:14:08.032Z,1.20
2018-08-12T17:16:36.265Z,1.12
2018-08-12T17:19:04.624Z,1.00
2018-08-12T17:21:32.839Z,0.90
2018-08-12T17:24:01.054Z,0.90
2018-08-12T17:26:29.203Z,0.95
2018-08-12T17:28:57.359Z,1.12
2018-08-12T17:31:25.649Z,1.25
2018-08-12T17:33:53.850Z,1.00
2018-08-12T17:36:22.067Z,1.20
2018-08-12T17:38:50.391Z,1.00
2018-08-12T17:41:18.577Z,1.10
2018-08-12T17:43:46.736Z,1.10
2018-08-12T17:46:14.878Z,0.90
2018-08-12T17:48:43.098Z,1.10
2018-08-12T17:51:11.196Z,1.00
2018-08-12T17:56:32.553Z,1.32
2018-08-12T17:59:00.725Z,1.42
2018-08-12T18:01:28.916Z,1.45
2018-08-12T18:03:57.039Z,1.70
2018-08-12T18:06:25.249Z,1.70
2018-08-12T18:08:53.352Z,1.50
2018-08-12T18:11:21.647Z,1.32
2018-08-12T18:13:49.742Z,1.20
2018-08-12T18:16:17.866Z,1.42
2018-08-12T18:18:45.945Z,1.45
2018-08-12T18:21:14.102Z,1.37
2018-08-12T18:23:42.190Z,1.77
2018-08-12T18:26:10.273Z,1.53
2018-08-12T18:28:38.391Z,1.80
2018-08-12T18:31:06.479Z,1.50
2018-08-12T18:33:34.612Z,1.90
2018-08-12T18:36:02.681Z,2.00
2018-08-12T18:38:30.844Z,1.70
2018-08-12T18:40:58.986Z,2.10
2018-08-12T18:43:27.125Z,3.00
2018-08-12T18:45:55.252Z,2.07
2018-08-12T18:48:23.370Z,2.10
2018-08-12T18:50:51.476Z,2.87
2018-08-12T18:53:20.593Z,3.43
2018-08-12T18:55:49.188Z,2.90
2018-08-12T18:58:17.498Z,2.27
2018-08-12T19:00:45.709Z,2.27
2018-08-12T19:03:13.922Z,2.33
2018-08-12T19:05:42.086Z,2.93
2018-08-12T19:08:10.118Z,2.40
2018-08-12T19:10:38.235Z,2.60
2018-08-12T19:13:06.288Z,2.47
2018-08-12T19:15:34.367Z,3.07
2018-08-12T19:18:02.605Z,2.53
2018-08-12T19:20:30.665Z,2.30
2018-08-12T19:22:58.739Z,2.30
2018-08-12T19:25:26.805Z,2.30
2018-08-12T19:27:54.853Z,2.70
2018-08-12T19:30:22.910Z,2.20
2018-08-12T19:32:51.144Z,2.50
2018-08-12T19:35:19.214Z,2.60
2018-08-12T19:37:47.298Z,2.73
2018-08-12T19:40:15.341Z,3.40
2018-08-12T19:42:43.463Z,3.10
2018-08-12T19:45:12.176Z,2.70
2018-08-12T19:47:40.264Z,3.53
2018-08-12T19:50:08.567Z,2.60
2018-08-12T19:52:36.610Z,2.57
2018-08-12T19:55:05.266Z,2.70
2018-08-12T19:57:33.318Z,2.60
2018-08-12T20:00:01.566Z,2.87
2018-08-12T20:02:29.607Z,3.00
2018-08-12T20:04:57.708Z,3.10
2018-08-12T20:07:25.760Z,2.80
2018-08-12T20:12:25.929Z,3.00
2018-08-12T20:14:53.995Z,3.70
2018-08-12T20:17:22.117Z,3.13
2018-08-12T20:19:50.177Z,3.30
2018-08-12T20:22:18.370Z,3.37
2018-08-12T20:24:46.712Z,2.83
2018-08-12T20:27:14.818Z,3.30
2018-08-12T20:29:43.386Z,2.70
2018-08-12T20:32:11.440Z,3.30
2018-08-12T20:34:39.742Z,3.17
2018-08-12T20:37:07.859Z,2.97
2018-08-12T20:39:35.985Z,2.80
2018-08-12T20:42:04.102Z,3.23
2018-08-12T20:47:24.578Z,3.63
2018-08-12T20:49:52.639Z,3.40
2018-08-12T20:52:20.694Z,3.50
2018-08-12T20:54:48.777Z,3.50
2018-08-12T20:57:16.898Z,2.90
2018-08-12T20:59:44.964Z,2.60
2018-08-12T21:02:13.026Z,3.10
2018-08-12T21:04:41.302Z,3.40
2018-08-12T21:07:09.363Z,3.07
2018-08-12T21:09:37.445Z,2.97
2018-08-12T21:12:05.677Z,3.10
2018-08-12T21:14:33.545Z,2.70
2018-08-12T21:17:01.615Z,3.17
2018-08-12T21:19:29.910Z,2.67
2018-08-12T21:21:58.110Z,2.77
2018-08-12T21:24:26.430Z,2.90
2018-08-12T21:26:54.754Z,3.00
2018-08-12T21:29:22.802Z,2.80
2018-08-12T21:31:50.879Z,2.87
2018-08-12T21:34:21.026Z,2.80
2018-08-12T21:36:49.109Z,2.90
2018-08-12T21:39:17.162Z,2.73
2018-08-12T21:41:45.276Z,2.57
2018-08-12T21:44:13.282Z,2.80
2018-08-12T21:46:41.345Z,2.70
2018-08-12T21:49:09.394Z,2.70
2018-08-12T21:51:37.531Z,2.50
2018-08-12T21:54:05.589Z,2.80
2018-08-12T21:56:33.658Z,2.80
2018-08-12T21:59:01.709Z,2.77
2018-08-12T22:01:29.789Z,3.10
2018-08-12T22:03:57.834Z,2.33
2018-08-12T22:06:25.921Z,2.67
2018-08-12T22:08:54.075Z,2.60
2018-08-12T22:11:22.133Z,2.53
2018-08-12T22:13:50.197Z,3.10
2018-08-12T22:16:18.318Z,2.80
2018-08-12T22:18:46.388Z,3.47
2018-08-12T22:21:14.483Z,2.80
2018-08-12T22:23:42.574Z,3.10
2018-08-12T22:26:10.653Z,2.60
2018-08-12T22:28:38.715Z,2.97
2018-08-12T22:31:06.759Z,3.17
2018-08-12T22:33:34.814Z,2.83
2018-08-12T22:36:02.889Z,2.93
2018-08-12T22:38:30.964Z,2.70
2018-08-12T22:40:59.026Z,2.60
2018-08-12T22:43:28.438Z,2.97
2018-08-12T22:45:56.506Z,3.03
2018-08-12T22:48:24.581Z,3.23
2018-08-12T22:50:52.630Z,2.93
2018-08-12T22:53:20.673Z,3.10
2018-08-12T22:55:48.731Z,3.20
2018-08-12T22:58:16.779Z,2.80
2018-08-12T23:00:44.868Z,2.90
2018-08-12T23:03:12.960Z,3.20
2018-08-12T23:05:40.998Z,2.93
2018-08-12T23:08:09.851Z,3.60
2018-08-12T23:10:38.680Z,3.43
2018-08-12T23:13:06.796Z,3.47
2018-08-12T23:16:44.859Z,3.50
2018-08-12T23:19:12.947Z,3.20
2018-08-12T23:21:41.004Z,3.33
2018-08-12T23:24:09.065Z,3.10
2018-08-12T23:26:37.175Z,3.33
2018-08-12T23:29:05.229Z,2.87
2018-08-12T23:31:33.297Z,3.43
2018-08-12T23:34:01.374Z,3.30
2018-08-12T23:36:29.434Z,3.40
2018-08-12T23:38:57.525Z,3.43
2018-08-12T23:41:25.561Z,3.20
2018-08-12T23:43:53.616Z,2.90
2018-08-12T23:46:21.661Z,3.37
2018-08-12T23:48:49.743Z,3.33
2018-08-12T23:51:17.809Z,3.90
2018-08-12T23:53:45.876Z,3.87
2018-08-12T23:56:14.032Z,3.90
2018-08-12T23:58:42.101Z,4.73
